Time;durP1;ratioP1;P1;durP2;ratioP2;P2;SDS_P1;SDS_P2;PMS_P1;PMS_P2;Temp;Humidity;BMP_temperature;BMP_pressure;BME280_temperature;BME280_humidity;BME280_pressure;Samples;Min_cycle;Max_cycle;Signal;HPM_P1;HPM_P2
2021/08/15 00:00:12;;;;;;;14.53;11.17;;;20.30;99.90;;;20.41;64.68;94446.94;5008587;28;20314;-72
2021/08/15 00:02:39;;;;;;;16.67;12.20;;;19.20;99.90;;;20.35;65.00;94432.03;5026435;28;20782;-74
2021/08/15 00:05:07;;;;;;;16.20;11.40;;;19.50;99.90;;;20.31;64.86;94435.69;5029225;28;20232;-74
2021/08/15 00:07:34;;;;;;;15.23;10.70;;;19.30;99.90;;;20.35;64.87;94440.09;5009909;28;20851;-74
2021/08/15 00:10:02;;;;;;;17.33;11.63;;;19.30;99.90;;;20.40;65.17;94436.50;4991948;28;20193;-72
2021/08/15 00:12:28;;;;;;;12.90;10.90;;;19.30;99.90;;;20.41;65.20;94438.09;4989861;28;20201;-74
2021/08/15 00:14:54;;;;;;;12.03;10.10;;;19.30;99.90;;;20.46;65.34;94435.25;5010976;28;20217;-74
2021/08/15 00:17:20;;;;;;;15.60;12.03;;;19.30;99.90;;;20.38;65.33;94442.19;5007460;28;20656;-74
2021/08/15 00:19:46;;;;;;;17.83;11.23;;;19.20;99.90;;;20.32;65.38;94437.25;4997367;28;20196;-74
2021/08/15 00:22:12;;;;;;;20.37;11.80;;;19.10;99.90;;;20.32;65.58;94434.56;4990454;28;20213;-74
2021/08/15 00:24:38;;;;;;;18.37;11.50;;;19.20;99.90;;;20.33;65.56;94438.84;4994485;28;20262;-72
2021/08/15 00:27:04;;;;;;;14.87;11.57;;;19.20;99.90;;;20.32;65.65;94432.66;5008526;28;20192;-74
2021/08/15 00:29:30;;;;;;;17.87;10.90;;;19.20;99.90;;;20.31;65.60;94422.97;5006885;28;20676;-74
2021/08/15 00:31:59;;;;;;;17.10;11.33;;;19.20;99.90;;;20.31;65.86;94422.97;4970105;28;20229;-74
2021/08/15 00:34:25;;;;;;;17.13;11.67;;;19.20;99.90;;;20.38;65.81;94426.00;5007898;28;20271;-74
2021/08/15 00:36:51;;;;;;;14.33;11.07;;;19.20;99.90;;;20.35;65.88;94428.53;5000674;28;20205;-74
2021/08/15 00:39:17;;;;;;;20.63;11.40;;;19.20;99.90;;;20.29;66.06;94414.44;5008085;28;20193;-74
2021/08/15 00:41:43;;;;;;;16.80;12.60;;;19.10;99.90;;;20.24;66.18;94413.75;5006237;28;20624;-74
2021/08/15 00:44:11;;;;;;;18.23;11.23;;;19.10;99.90;;;20.19;66.42;94406.63;5008459;28;20204;-74
2021/08/15 00:46:39;;;;;;;17.13;11.20;;;19.10;99.90;;;20.18;66.21;94407.72;5005740;28;20185;-74
2021/08/15 00:49:05;;;;;;;18.47;11.77;;;19.00;99.90;;;20.14;66.39;94400.59;4992061;28;20173;-74
2021/08/15 00:51:31;;;;;;;18.60;11.83;;;19.00;99.90;;;20.14;66.28;94398.69;5000964;28;20752;-74
2021/08/15 00:53:58;;;;;;;15.53;11.87;;;19.00;99.90;;;20.08;66.14;94389.16;5007705;28;20203;-74
2021/08/15 00:56:25;;;;;;;17.00;12.20;;;19.00;99.90;;;19.97;66.73;94393.25;5001625;28;20205;-74
2021/08/15 00:58:52;;;;;;;16.47;12.27;;;18.90;99.90;;;19.91;66.78;94394.50;4992343;28;20208;-75
2021/08/15 01:01:19;;;;;;;23.77;12.90;;;18.80;99.90;;;19.86;66.91;94381.97;4988453;28;20201;-74
2021/08/15 01:03:45;;;;;;;16.70;12.20;;;18.70;99.90;;;19.83;66.90;94384.47;5007458;28;20205;-74
2021/08/15 01:06:11;;;;;;;14.63;12.17;;;18.70;99.90;;;19.87;67.04;94385.44;4999787;28;20641;-74
2021/08/15 01:08:37;;;;;;;17.70;12.10;;;18.70;99.90;;;19.87;67.16;94378.16;4987195;28;20288;-74
2021/08/15 01:11:09;;;;;;;15.90;11.90;;;18.70;99.90;;;19.89;67.12;94380.53;4983864;28;20292;-74
2021/08/15 01:13:37;;;;;;;18.07;11.57;;;18.70;99.90;;;19.86;67.37;94373.88;5005226;28;20501;-74
2021/08/15 01:16:07;;;;;;;20.10;12.03;;;18.70;99.90;;;19.87;67.25;94386.25;5009318;28;20191;-74
2021/08/15 01:18:38;;;;;;;18.53;11.63;;;18.70;99.90;;;19.82;67.43;94377.50;4991070;28;20861;-74
2021/08/15 01:21:13;;;;;;;16.50;12.40;;;18.70;99.90;;;19.85;67.53;94387.63;5003930;28;20217;-74
2021/08/15 01:23:44;;;;;;;16.23;12.90;;;18.70;99.90;;;19.73;67.57;94382.06;5007826;28;20222;-74
2021/08/15 01:26:14;;;;;;;17.63;13.50;;;18.60;99.90;;;19.68;67.97;94379.47;5008712;28;20649;-74
2021/08/15 01:28:41;;;;;;;19.03;12.93;;;18.50;99.90;;;19.70;67.88;94386.16;4987497;28;20649;-74
2021/08/15 01:31:08;;;;;;;20.47;13.67;;;18.50;99.90;;;19.65;68.08;94380.91;4988306;28;20664;-74
2021/08/15 01:33:39;;;;;;;18.77;13.63;;;18.50;99.90;;;19.68;68.19;94377.59;5006456;28;20231;-74
2021/08/15 01:36:06;;;;;;;20.47;13.83;;;18.40;99.90;;;19.72;67.75;94369.69;4990911;28;20194;-74
2021/08/15 01:38:36;;;;;;;16.53;13.03;;;18.50;99.90;;;19.64;68.10;94373.16;5005535;28;20275;-74
2021/08/15 01:41:08;;;;;;;22.37;13.20;;;18.40;99.90;;;19.58;68.35;94369.00;4982723;28;20278;-74
2021/08/15 01:43:56;;;;;;;18.83;12.90;;;18.40;99.90;;;19.65;68.14;94372.81;5009269;28;20529;-74
2021/08/15 01:46:26;;;;;;;16.60;11.83;;;18.50;99.90;;;19.64;68.50;94371.22;5005451;28;20181;-75
2021/08/15 01:48:53;;;;;;;18.20;12.13;;;18.50;99.90;;;19.60;68.38;94369.50;5006850;28;20188;-74
2021/08/15 01:51:19;;;;;;;21.87;11.77;;;18.40;99.90;;;19.62;68.38;94369.97;4996508;28;20297;-74
2021/08/15 01:53:48;;;;;;;18.60;11.97;;;18.40;99.90;;;19.60;68.67;94372.19;4991351;28;20207;-74
2021/08/15 01:56:14;;;;;;;16.10;11.23;;;18.40;99.90;;;19.59;68.63;94368.69;5003588;28;20194;-74
2021/08/15 01:58:40;;;;;;;17.40;11.10;;;18.40;99.90;;;19.51;68.75;94374.03;5009057;28;20212;-74
2021/08/15 02:01:08;;;;;;;17.53;11.83;;;18.40;99.90;;;19.54;68.39;94378.78;4986865;28;20813;-74
2021/08/15 02:03:37;;;;;;;15.47;12.37;;;18.30;99.90;;;19.46;69.01;94374.94;5008820;28;20220;-74
2021/08/15 02:06:04;;;;;;;17.70;11.97;;;18.40;99.90;;;19.41;68.71;94367.78;5003423;28;20197;-74
2021/08/15 02:08:30;;;;;;;20.93;13.40;;;17.80;99.90;;;19.38;68.89;94364.91;4990764;28;20216;-74
2021/08/15 02:10:56;;;;;;;17.93;11.97;;;18.30;99.90;;;19.41;69.00;94370.50;4988680;28;20720;-74
2021/08/15 02:13:24;;;;;;;16.10;11.70;;;18.40;99.90;;;19.42;68.83;94364.00;4991088;28;20196;-74
2021/08/15 02:15:50;;;;;;;16.10;12.10;;;18.10;99.90;;;19.39;69.13;94375.34;5006731;28;20647;-74
2021/08/15 02:18:16;;;;;;;17.20;12.57;;;18.30;99.90;;;19.40;69.37;94366.22;5009020;28;20205;-74
2021/08/15 02:20:42;;;;;;;13.07;11.03;;;18.20;99.90;;;19.38;69.24;94359.53;4982178;28;20255;-74
2021/08/15 02:23:08;;;;;;;18.17;12.93;;;18.30;99.90;;;19.35;69.40;94366.31;5005834;28;20268;-74
2021/08/15 02:25:36;;;;;;;19.80;13.73;;;18.20;99.90;;;19.28;69.51;94363.25;5000525;28;20286;-74
2021/08/15 02:28:04;;;;;;;17.27;12.73;;;18.10;99.90;;;19.25;69.39;94371.94;4974948;28;20201;-74
2021/08/15 02:30:31;;;;;;;19.83;12.63;;;18.10;99.90;;;19.25;69.69;94365.78;4992209;28;20209;-74
2021/08/15 02:32:58;;;;;;;14.73;12.97;;;18.10;99.90;;;19.20;69.60;94361.34;5007467;28;20227;-74
2021/08/15 02:35:25;;;;;;;20.00;12.97;;;18.00;99.90;;;19.20;69.48;94357.84;5016993;28;20197;-74
2021/08/15 02:37:55;;;;;;;18.27;12.90;;;18.00;99.90;;;19.17;69.69;94353.84;5002961;28;20245;-75
2021/08/15 02:40:22;;;;;;;15.63;12.87;;;18.00;99.90;;;19.14;69.80;94351.78;5003863;28;20188;-72
2021/08/15 02:42:50;;;;;;;19.77;12.80;;;18.00;99.90;;;19.12;69.92;94355.88;5003255;28;20270;-75
2021/08/15 02:45:20;;;;;;;18.60;12.03;;;18.00;99.90;;;19.11;70.23;94354.28;4994854;28;20177;-72
2021/08/15 02:47:47;;;;;;;16.53;12.40;;;18.10;99.90;;;19.09;70.18;94349.22;5004760;28;20188;-72
2021/08/15 02:50:17;;;;;;;15.07;13.27;;;18.00;99.90;;;19.10;70.33;94350.84;4987151;28;20185;-73
2021/08/15 02:52:44;;;;;;;17.27;13.00;;;18.00;99.90;;;19.09;70.22;94349.22;5002514;28;20204;-72
2021/08/15 02:55:13;;;;;;;17.67;12.43;;;18.00;99.90;;;19.09;70.04;94349.22;4989786;28;20242;-72
2021/08/15 02:57:41;;;;;;;18.97;13.53;;;17.90;99.90;;;19.11;70.29;94330.09;5004682;28;20216;-75
2021/08/15 03:00:10;;;;;;;17.63;13.23;;;18.00;99.90;;;19.11;70.37;94346.22;4989158;28;20211;-74
2021/08/15 03:02:36;;;;;;;16.53;12.67;;;17.90;99.90;;;19.09;70.56;94335.81;4988318;28;20217;-75
2021/08/15 03:05:04;;;;;;;16.40;12.00;;;18.00;99.90;;;19.10;70.61;94341.97;4973781;28;20195;-74
2021/08/15 03:07:32;;;;;;;17.13;12.10;;;18.00;99.90;;;19.07;70.44;94348.72;5002718;28;20600;-74
2021/08/15 03:10:00;;;;;;;16.37;12.93;;;17.90;99.90;;;19.07;70.79;94340.66;5002751;28;20243;-74
2021/08/15 03:12:26;;;;;;;16.60;13.83;;;17.90;99.90;;;19.02;70.89;94343.50;5004391;28;20758;-74
2021/08/15 03:14:57;;;;;;;18.17;11.93;;;17.80;99.90;;;19.01;70.68;94341.91;4987367;28;20200;-74
2021/08/15 03:17:23;;;;;;;15.90;13.13;;;17.80;99.90;;;18.92;70.97;94327.63;5007056;28;20196;-75
2021/08/15 03:19:49;;;;;;;17.53;12.97;;;17.80;99.90;;;18.84;70.93;94337.19;5005592;28;20193;-73
2021/08/15 03:22:15;;;;;;;17.10;12.03;;;17.70;99.90;;;18.87;70.93;94351.91;5004316;28;20223;-74
2021/08/15 03:24:40;;;;;;;16.53;12.23;;;17.80;99.90;;;18.86;71.07;94345.75;4986953;28;20197;-74
2021/08/15 03:27:06;;;;;;;22.93;13.20;;;17.70;99.90;;;18.85;71.11;94338.78;5011653;28;20286;-74
2021/08/15 03:29:32;;;;;;;17.07;14.23;;;17.70;99.90;;;18.81;71.01;94342.38;4996523;28;20199;-74
2021/08/15 03:31:58;;;;;;;20.83;14.23;;;17.70;99.90;;;18.80;71.00;94338.13;5004443;28;20232;-74
2021/08/15 03:34:28;;;;;;;21.47;14.53;;;17.70;99.90;;;18.86;71.34;94345.75;5004248;28;20263;-74
2021/08/15 03:36:58;;;;;;;17.60;13.40;;;17.60;99.90;;;18.88;71.43;94335.50;5005695;28;20206;-74
2021/08/15 03:39:29;;;;;;;18.60;14.07;;;17.70;99.90;;;18.85;71.50;94333.41;5004871;28;20208;-74
2021/08/15 03:41:58;;;;;;;17.83;13.20;;;17.70;99.90;;;18.77;71.44;94333.34;5004260;28;20228;-74
2021/08/15 03:44:27;;;;;;;17.83;13.90;;;17.60;99.90;;;18.75;71.65;94330.97;5003590;28;20197;-74
2021/08/15 03:46:54;;;;;;;19.13;14.17;;;17.60;99.90;;;18.72;71.41;94318.16;4988733;28;20190;-74
2021/08/15 03:49:20;;;;;;;16.63;13.53;;;17.60;99.90;;;18.69;71.75;94323.34;5004948;28;20208;-74
2021/08/15 03:51:54;;;;;;;17.27;13.43;;;17.60;99.90;;;18.71;71.93;94331.88;4993736;28;20208;-75
2021/08/15 03:54:20;;;;;;;18.43;14.90;;;17.50;99.90;;;18.70;71.66;94323.03;4990703;28;20228;-73
2021/08/15 03:56:50;;;;;;;19.10;14.47;;;17.50;99.90;;;18.74;71.77;94326.69;5006328;28;20247;-74
2021/08/15 03:59:19;;;;;;;18.20;13.90;;;17.60;99.90;;;18.70;71.66;94320.34;5006135;28;20189;-73
2021/08/15 04:01:46;;;;;;;19.27;14.67;;;17.60;99.90;;;18.69;71.92;94318.78;4987180;28;20290;-74
2021/08/15 04:04:12;;;;;;;19.03;13.33;;;17.50;99.90;;;18.69;71.66;94317.97;5008764;28;20189;-73
2021/08/15 04:06:41;;;;;;;18.80;14.63;;;17.50;99.90;;;18.67;72.27;94315.56;5004188;28;20205;-73
2021/08/15 04:09:07;;;;;;;14.77;13.17;;;;;;;18.60;71.95;94319.81;4987991;28;20197;-73
2021/08/15 04:11:33;;;;;;;21.10;13.90;;;17.90;99.90;;;18.53;72.14;94300.63;5001208;28;20199;-73
2021/08/15 04:14:01;;;;;;;18.93;12.93;;;17.50;99.90;;;18.53;72.17;94316.75;5007052;28;20530;-73
2021/08/15 04:16:26;;;;;;;20.17;13.53;;;17.40;99.90;;;18.53;72.37;94308.69;4999409;28;20283;-73
2021/08/15 04:18:54;;;;;;;16.30;12.57;;;17.00;99.90;;;18.51;72.38;94306.28;4998898;28;20284;-73
2021/08/15 04:21:21;;;;;;;15.60;13.00;;;17.60;99.90;;;18.59;72.33;94313.63;5006082;28;20228;-74
2021/08/15 04:23:47;;;;;;;17.97;13.67;;;17.50;99.90;;;18.59;72.47;94310.16;4991470;28;20259;-73
2021/08/15 04:26:13;;;;;;;16.40;12.27;;;17.40;99.90;;;18.57;72.59;94312.38;4972524;28;20351;-73
2021/08/15 04:28:43;;;;;;;18.60;13.70;;;17.40;99.90;;;18.56;72.28;94305.41;5005463;28;20696;-73
2021/08/15 04:31:09;;;;;;;19.40;13.30;;;17.40;99.90;;;18.51;72.34;94292.06;5014633;28;20216;-73
2021/08/15 04:33:35;;;;;;;19.10;14.13;;;17.30;99.90;;;18.57;72.70;94296.25;5013275;28;20200;-73
2021/08/15 04:36:03;;;;;;;24.03;14.00;;;17.40;99.90;;;18.61;72.65;94305.25;4992191;28;20688;-73
2021/08/15 04:38:29;;;;;;;22.37;14.50;;;17.40;99.90;;;18.56;72.54;94292.78;4982246;28;20200;-73
2021/08/15 04:40:55;;;;;;;18.47;13.70;;;17.30;99.90;;;18.59;72.81;94286.00;4973953;28;20196;-74
2021/08/15 04:43:21;;;;;;;19.23;14.03;;;17.40;99.90;;;18.62;72.94;94296.13;5008309;28;20264;-74
2021/08/15 04:45:47;;;;;;;18.13;13.13;;;17.40;99.90;;;18.68;72.83;94298.38;5010810;28;20275;-73
2021/08/15 04:48:15;;;;;;;17.17;12.90;;;17.40;99.90;;;18.74;72.83;94299.84;5008167;28;20938;-73
2021/08/15 04:50:41;;;;;;;18.43;13.03;;;17.50;99.90;;;18.69;72.88;94288.44;4989545;28;20220;-73
2021/08/15 04:53:07;;;;;;;23.00;14.13;;;17.50;99.90;;;18.67;73.00;94291.41;5005655;28;20196;-73
2021/08/15 04:55:35;;;;;;;16.00;12.97;;;17.40;99.90;;;18.79;73.02;94296.25;4993452;28;20291;-73
2021/08/15 04:58:03;;;;;;;20.83;14.07;;;17.50;99.90;;;18.80;73.14;94293.25;5003436;28;20227;-74
2021/08/15 05:00:30;;;;;;;22.90;14.90;;;17.60;99.90;;;18.85;73.25;94292.34;5008392;28;20729;-74
2021/08/15 05:02:58;;;;;;;20.13;14.20;;;17.60;99.90;;;18.88;73.05;94294.41;5003192;28;20232;-74
2021/08/15 05:05:25;;;;;;;20.23;13.93;;;17.60;99.90;;;18.94;73.23;94295.84;4989611;28;20214;-73
2021/08/15 05:07:51;;;;;;;17.70;13.17;;;17.70;99.90;;;19.06;73.21;94290.75;5005495;28;20209;-73
2021/08/15 05:10:19;;;;;;;15.73;13.37;;;17.80;99.90;;;19.16;73.34;94309.28;5001680;28;20200;-73
2021/08/15 05:12:47;;;;;;;21.30;14.13;;;17.90;99.90;;;19.22;73.26;94286.56;4999564;28;20186;-73
2021/08/15 05:15:16;;;;;;;14.33;12.17;;;18.00;99.90;;;19.25;73.38;94285.94;4995212;28;20251;-73
2021/08/15 05:17:44;;;;;;;15.83;11.57;;;18.00;99.90;;;19.37;73.46;94301.50;5003586;28;20687;-73
2021/08/15 05:20:14;;;;;;;17.67;11.60;;;18.10;99.90;;;19.51;73.43;94296.81;4992331;28;20975;-73
2021/08/15 05:22:40;;;;;;;20.80;12.43;;;18.20;99.90;;;19.62;73.52;94303.53;5001392;28;20613;-74
2021/08/15 05:25:07;;;;;;;17.10;11.90;;;18.30;99.90;;;19.76;73.31;94300.72;4965021;28;20204;-73
2021/08/15 05:27:33;;;;;;;16.00;11.57;;;18.50;99.90;;;19.77;73.56;94289.69;4985807;28;20201;-73
2021/08/15 05:30:02;;;;;;;16.13;11.47;;;18.60;99.90;;;19.77;73.69;94292.38;5005832;28;20190;-73
2021/08/15 05:32:28;;;;;;;14.00;10.50;;;18.60;99.90;;;19.89;73.53;94292.53;5009290;28;20215;-73
2021/08/15 05:34:54;;;;;;;18.60;12.27;;;18.70;99.90;;;20.00;73.58;94295.75;4988371;28;20197;-73
2021/08/15 05:37:20;;;;;;;14.63;10.50;;;18.70;99.90;;;20.20;73.66;94297.84;4985161;28;20216;-73
2021/08/15 05:39:46;;;;;;;15.63;11.13;;;18.90;99.90;;;20.31;73.71;94307.22;5006766;28;20190;-73
2021/08/15 05:42:12;;;;;;;18.20;10.83;;;19.10;99.90;;;20.54;73.68;94309.78;4998756;28;20735;-73
2021/08/15 05:44:38;;;;;;;17.93;11.10;;;19.30;99.90;;;20.67;73.65;94303.44;4991520;28;20275;-73
2021/08/15 05:47:04;;;;;;;16.33;11.33;;;19.40;99.90;;;20.82;73.87;94303.75;5005262;28;20196;-73
2021/08/15 05:49:31;;;;;;;19.03;11.10;;;19.60;99.90;;;20.99;73.76;94302.94;5004937;28;20309;-73
2021/08/15 05:51:58;;;;;;;18.17;10.27;;;19.80;99.90;;;21.19;73.71;94306.91;5006445;28;20628;-73
2021/08/15 05:54:23;;;;;;;16.50;9.77;;;20.00;99.90;;;21.36;73.86;94318.44;5006371;28;20181;-73
2021/08/15 05:56:49;;;;;;;17.77;9.97;;;20.20;99.90;;;21.51;73.67;94311.75;5005306;28;20191;-74
2021/08/15 05:59:17;;;;;;;15.37;9.40;;;20.30;99.90;;;21.53;73.53;94311.41;5003165;28;20292;-73
2021/08/15 06:01:45;;;;;;;16.73;10.13;;;20.40;99.90;;;21.58;73.57;94328.22;4987594;28;20181;-73
2021/08/15 06:04:11;;;;;;;15.33;10.10;;;20.40;99.90;;;21.73;73.45;94319.59;4999816;28;20226;-73
2021/08/15 06:06:37;;;;;;;17.10;9.80;;;20.60;99.90;;;22.02;73.52;94320.78;4970337;28;20197;-74
2021/08/15 06:09:03;;;;;;;14.07;9.00;;;20.80;99.90;;;22.71;73.37;94348.97;4999862;28;20193;-73
2021/08/15 06:11:29;;;;;;;14.27;9.23;;;21.40;99.90;;;24.00;73.57;94366.72;5000414;28;20192;-73
2021/08/15 06:13:57;;;;;;;16.77;8.57;;;;;;;25.33;73.09;94366.59;5003189;28;20197;-73
2021/08/15 06:16:26;;;;;;;14.43;8.47;;;24.40;99.90;;;26.57;72.91;94339.09;5005016;28;20597;-73
2021/08/15 06:18:54;;;;;;;16.83;8.47;;;25.10;99.90;;;27.69;72.93;94367.97;5007008;28;20196;-74
2021/08/15 06:21:19;;;;;;;12.80;7.70;;;26.40;99.90;;;28.72;71.86;94364.28;4982901;28;20213;-74
2021/08/15 06:23:47;;;;;;;18.27;8.43;;;27.60;99.90;;;29.39;71.79;94335.97;4992857;28;20260;-74
2021/08/15 06:26:13;;;;;;;21.87;8.50;;;28.70;99.90;;;30.08;71.40;94327.34;5017336;28;20177;-74
2021/08/15 06:28:39;;;;;;;11.90;7.83;;;29.70;99.90;;;30.91;70.97;94347.56;4988495;28;20711;-75
2021/08/15 06:31:05;;;;;;;11.37;7.77;;;30.60;99.90;;;31.64;70.41;94357.34;4969753;28;20676;-74
2021/08/15 06:33:30;;;;;;;13.07;8.07;;;31.40;99.90;;;32.22;69.87;94361.81;5000657;28;20229;-74
2021/08/15 06:35:56;;;;;;;13.17;7.97;;;32.10;99.90;;;32.95;69.78;94347.31;5006377;28;20207;-74
2021/08/15 06:38:26;;;;;;;13.23;8.48;;;32.90;99.90;;;33.26;69.33;94320.16;4986093;28;20186;-75
2021/08/15 06:40:57;;;;;;;12.70;8.95;;;33.40;99.90;;;34.01;68.44;94348.94;4997831;28;20214;-75
2021/08/15 06:43:25;;;;;;;14.55;9.65;;;34.20;99.90;;;34.42;68.49;94297.50;5000057;28;20259;-72
2021/08/15 06:45:51;;;;;;;9.15;7.78;;;34.80;99.90;;;34.41;67.64;94311.69;5001170;28;20193;-72
2021/08/15 06:48:17;;;;;;;11.50;7.35;;;35.00;99.90;;;35.01;66.92;94356.03;5001587;28;20649;-72
2021/08/15 06:50:46;;;;;;;12.23;7.70;;;35.60;99.90;;;36.18;66.78;94337.34;5000990;28;20197;-72
2021/08/15 06:53:12;;;;;;;10.30;7.47;;;36.60;99.90;;;36.88;65.70;94291.22;5003224;28;20219;-73
2021/08/15 06:55:38;;;;;;;12.40;8.00;;;37.50;99.90;;;37.69;64.73;94347.00;5000700;28;20201;-73
2021/08/15 06:58:04;;;;;;;14.73;7.00;;;38.30;98.50;;;38.65;63.65;94337.38;4985865;28;20903;-72
2021/08/15 07:00:29;;;;;;;8.95;7.35;;;39.30;95.60;;;39.36;62.75;94339.09;4999746;28;20205;-72
2021/08/15 07:02:55;;;;;;;14.02;7.05;;;40.10;93.40;;;40.03;62.43;94348.31;4984288;28;20259;-73
2021/08/15 07:05:23;;;;;;;12.52;7.03;;;40.80;91.00;;;39.61;61.92;94213.50;5006035;28;20188;-72
2021/08/15 07:07:49;;;;;;;13.88;7.45;;;41.10;87.10;;;39.71;60.88;94262.41;4990900;28;20255;-72
2021/08/15 07:10:15;;;;;;;11.02;6.75;;;41.40;85.20;;;39.32;60.21;94288.50;5005553;28;20192;-72
2021/08/15 07:12:41;;;;;;;10.90;7.20;;;41.20;85.10;;;38.99;59.75;94237.84;5003896;28;20196;-72
2021/08/15 07:15:08;;;;;;;11.60;8.35;;;41.00;84.80;;;39.07;58.97;94288.34;5004500;28;20196;-73
2021/08/15 07:17:39;;;;;;;15.13;10.68;;;40.70;85.30;;;38.25;58.91;94268.22;4987442;28;20716;-72
2021/08/15 07:20:10;;;;;;;10.43;7.15;;;40.10;85.10;;;37.66;58.14;94284.97;4999333;28;20190;-72
2021/08/15 07:22:39;;;;;;;10.48;6.95;;;39.70;86.30;;;37.13;57.80;94199.53;4968284;28;20205;-73
2021/08/15 07:25:06;;;;;;;13.20;7.28;;;39.30;86.30;;;36.78;57.07;94268.09;4987659;28;20201;-72
2021/08/15 07:27:34;;;;;;;14.45;7.32;;;38.40;88.90;;;37.25;56.77;94318.59;4989312;28;20189;-73
2021/08/15 07:30:00;;;;;;;13.38;6.88;;;38.70;88.10;;;37.41;56.37;94331.69;4990915;28;20709;-72
2021/08/15 07:32:26;;;;;;;10.65;6.78;;;38.80;87.20;;;38.15;55.62;94312.78;5006739;28;20212;-73
2021/08/15 07:34:52;;;;;;;11.90;6.47;;;39.50;85.70;;;38.33;55.03;94321.47;5005634;28;20216;-72
2021/08/15 07:37:18;;;;;;;18.40;6.57;;;39.90;84.70;;;38.94;54.80;94299.41;5007863;28;20186;-73
2021/08/15 07:39:44;;;;;;;12.73;7.20;;;40.60;83.70;;;37.35;54.54;94231.06;5007382;28;20267;-73
2021/08/15 07:42:10;;;;;;;14.25;7.05;;;39.60;82.80;;;38.39;54.09;94353.00;4992093;28;20222;-73
2021/08/15 07:44:38;;;;;;;12.68;6.53;;;40.10;83.80;;;39.09;53.81;94350.50;5002757;28;20202;-73
2021/08/15 07:47:04;;;;;;;12.30;6.85;;;40.80;80.90;;;40.29;52.74;94307.47;5003413;28;20194;-72
2021/08/15 07:49:33;;;;;;;9.98;6.22;;;42.00;78.50;;;40.81;52.07;94254.13;5005752;28;21959;-72
2021/08/15 07:51:59;;;;;;;12.32;6.97;;;42.70;76.40;;;40.69;51.85;94296.66;5007710;28;20549;-72
2021/08/15 07:54:25;;;;;;;11.30;6.80;;;42.80;75.50;;;41.13;51.17;94319.81;5005002;28;20197;-72
2021/08/15 07:56:53;;;;;;;8.80;6.07;;;43.50;73.50;;;40.96;50.61;94249.66;5006048;28;20194;-73
2021/08/15 07:59:19;;;;;;;10.98;6.18;;;43.70;71.70;;;41.66;50.03;94343.00;4989245;28;20288;-72
2021/08/15 08:01:45;;;;;;;10.05;6.90;;;44.10;70.90;;;42.29;49.71;94276.53;5003363;28;20288;-73
2021/08/15 08:04:11;;;;;;;11.23;7.10;;;45.00;68.90;;;41.27;49.27;94255.31;5005622;28;20284;-72
2021/08/15 08:06:36;;;;;;;10.93;6.53;;;43.90;69.60;;;41.73;48.88;94220.97;5002855;28;20202;-72
2021/08/15 08:09:05;;;;;;;11.77;6.97;;;44.30;68.20;;;39.46;48.73;94119.53;4993769;28;20266;-72
2021/08/15 08:11:30;;;;;;;14.25;7.57;;;42.70;70.00;;;37.55;48.61;94168.19;5004008;28;20649;-73
2021/08/15 08:13:56;;;;;;;13.95;6.80;;;40.90;73.40;;;36.25;48.55;94185.34;4991071;28;20224;-73
2021/08/15 08:16:22;;;;;;;13.48;6.50;;;39.10;78.20;;;34.22;48.39;94216.66;5005806;28;21571;-72
2021/08/15 08:18:52;;;;;;;13.48;7.25;;;35.70;93.10;;;33.38;48.46;94240.78;4989399;28;20193;-71
2021/08/15 08:21:18;;;;;;;11.88;7.05;;;34.30;93.90;;;33.00;47.98;94266.47;5019754;28;20275;-72
2021/08/15 08:23:44;;;;;;;17.00;6.90;;;34.60;90.50;;;34.48;48.16;94311.66;5002186;28;20193;-72
2021/08/15 08:26:11;;;;;;;12.60;7.03;;;35.30;90.80;;;36.56;47.50;94322.19;5003986;28;20197;-71
2021/08/15 08:28:37;;;;;;;15.68;7.18;;;36.90;87.90;;;38.74;46.77;94309.81;5001508;28;20358;-72
2021/08/15 08:31:04;;;;;;;14.13;6.93;;;39.40;81.90;;;39.01;46.81;94290.13;5021667;28;20217;-72
2021/08/15 08:33:30;;;;;;;10.32;7.07;;;40.40;79.50;;;39.58;46.69;94298.44;5018180;28;20747;-72
2021/08/15 08:35:57;;;;;;;15.93;7.00;;;41.30;77.10;;;40.43;46.21;94277.19;4997480;28;20288;-71
2021/08/15 08:38:24;;;;;;;14.05;6.40;;;42.20;74.00;;;41.37;45.58;94295.94;4996575;28;20194;-72
2021/08/15 08:40:53;;;;;;;13.50;6.18;;;43.30;72.90;;;42.69;45.46;94298.81;4985641;28;20185;-71
2021/08/15 08:43:20;;;;;;;13.10;6.00;;;45.00;67.40;;;42.97;44.76;94243.81;4993710;28;20235;-72
2021/08/15 08:45:47;;;;;;;10.48;6.22;;;45.60;65.90;;;42.45;44.11;94242.00;5018478;28;20197;-72
2021/08/15 08:48:17;;;;;;;12.25;6.05;;;45.30;65.20;;;42.08;44.40;94254.25;4999540;28;20196;-73
2021/08/15 08:50:52;;;;;;;9.85;5.70;;;45.00;63.80;;;41.92;43.61;94216.28;5003071;28;20679;-73
2021/08/15 08:53:19;;;;;;;11.75;6.05;;;45.20;62.50;;;41.59;43.44;94237.44;4985377;28;20318;-72
2021/08/15 08:55:45;;;;;;;9.38;5.88;;;44.70;64.40;;;42.16;42.78;94330.78;5003472;28;20192;-73
2021/08/15 08:58:13;;;;;;;9.55;6.32;;;44.80;64.20;;;42.66;42.67;94282.22;5000291;28;20284;-71
2021/08/15 09:00:42;;;;;;;9.90;6.30;;;45.10;63.70;;;43.32;41.72;94284.16;4983398;28;20204;-72
2021/08/15 09:03:08;;;;;;;13.10;6.53;;;45.80;61.60;;;43.66;41.31;94327.78;5006168;28;20529;-72
2021/08/15 09:05:37;;;;;;;13.88;6.00;;;46.10;60.90;;;44.34;41.14;94325.47;5001890;28;20204;-72
2021/08/15 09:08:07;;;;;;;9.48;5.75;;;47.10;59.00;;;45.30;40.69;94304.75;4982290;28;20189;-72
2021/08/15 09:10:38;;;;;;;12.27;5.97;;;48.20;57.70;;;45.74;40.21;94272.00;4988482;28;20197;-71
2021/08/15 09:13:14;;;;;;;8.38;5.65;;;49.00;55.80;;;46.32;39.77;94225.56;4982396;28;20213;-71
2021/08/15 09:15:55;;;;;;;9.52;6.40;;;49.80;54.50;;;45.74;39.02;94299.25;4986120;28;20223;-73
2021/08/15 09:18:34;;;;;;;11.30;6.28;;;49.30;54.60;;;45.41;38.60;94366.63;5018459;28;20283;-73
2021/08/15 09:21:05;;;;;;;12.32;6.10;;;48.70;54.10;;;45.11;38.42;94269.75;5005634;28;20189;-72
2021/08/15 09:23:37;;;;;;;9.82;6.38;;;48.50;54.50;;;45.11;37.98;94294.94;5004033;28;20905;-72
2021/08/15 09:26:19;;;;;;;16.15;6.32;;;48.50;55.30;;;46.24;37.59;94291.75;5014250;28;20284;-72
2021/08/15 09:28:48;;;;;;;16.13;6.28;;;49.60;55.20;;;46.92;37.31;94226.91;5009103;28;20284;-72
2021/08/15 09:31:35;;;;;;;12.02;6.22;;;49.60;53.70;;;47.19;36.25;94303.13;4999352;28;20213;-72
2021/08/15 09:34:05;;;;;;;12.43;6.55;;;50.20;53.80;;;47.38;35.90;94257.88;4996233;28;20213;-73
2021/08/15 09:36:41;;;;;;;11.85;5.93;;;50.70;53.20;;;47.28;35.65;94241.16;4985368;28;20256;-72
2021/08/15 09:39:11;;;;;;;8.82;6.20;;;51.10;52.00;;;47.20;35.68;94245.69;4986236;28;20204;-74
2021/08/15 09:41:40;;;;;;;10.82;6.00;;;51.10;52.30;;;47.36;34.91;94174.84;5001642;28;20189;-70
2021/08/15 09:44:27;;;;;;;11.38;6.30;;;51.70;51.40;;;48.06;34.77;94194.13;4985497;28;20189;-72
2021/08/15 09:47:05;;;;;;;10.23;6.03;;;52.10;50.60;;;46.98;34.58;94219.34;4980222;28;20718;-71
2021/08/15 09:49:49;;;;;;;10.27;6.18;;;51.20;51.90;;;47.57;33.56;94287.25;5019037;28;20189;-71
2021/08/15 09:52:21;;;;;;;15.35;6.38;;;51.70;51.70;;;46.33;33.53;94067.97;5003487;28;20217;-71
2021/08/15 09:54:57;;;;;;;9.25;5.50;;;51.10;51.60;;;46.29;33.42;94199.25;4982573;28;20198;-71
2021/08/15 09:57:35;;;;;;;10.85;5.88;;;50.20;52.90;;;46.17;33.13;94216.41;5008023;28;20243;-71
2021/08/15 10:00:06;;;;;;;11.00;5.63;;;49.90;52.30;;;46.50;32.73;94160.03;4981437;28;20197;-71
2021/08/15 10:02:32;;;;;;;11.10;6.07;;;50.60;52.70;;;47.15;32.46;94158.50;5003485;28;20200;-71
2021/08/15 10:04:59;;;;;;;14.13;6.13;;;50.70;51.30;;;47.84;32.53;94248.16;4986520;28;20204;-71
2021/08/15 10:07:25;;;;;;;11.35;6.18;;;51.10;52.30;;;48.50;31.70;94213.38;5004134;28;20586;-71
2021/08/15 10:09:51;;;;;;;11.68;5.97;;;52.00;50.80;;;49.44;31.50;94271.47;4984514;28;20229;-71
2021/08/15 10:12:20;;;;;;;11.93;6.00;;;52.80;49.20;;;48.97;31.20;94237.22;4987385;28;20265;-73